createdAt,value
2022-08-30T00:01:25.955Z,61.41
2022-08-30T00:06:30.825Z,61.44
2022-08-30T00:11:33.823Z,61.67
2022-08-30T00:16:36.704Z,61.99
2022-08-30T00:21:40.798Z,62.02
2022-08-30T00:26:43.697Z,62.01
2022-08-30T00:31:46.969Z,68.88
2022-08-30T00:36:49.921Z,61.91
2022-08-30T00:41:52.787Z,53.35
2022-08-30T00:46:55.813Z,52.80
2022-08-30T00:51:59.124Z,54.09
2022-08-30T00:57:03.525Z,55.13
2022-08-30T01:02:07.431Z,56.09
2022-08-30T01:07:10.597Z,57.32
2022-08-30T01:12:13.699Z,58.13
2022-08-30T01:17:21.299Z,58.97
2022-08-30T01:22:50.430Z,59.68
2022-08-30T01:28:05.614Z,60.29
2022-08-30T01:33:11.096Z,60.92
2022-08-30T01:38:16.187Z,61.34
2022-08-30T01:43:19.642Z,69.32
2022-08-30T01:48:22.590Z,61.71
2022-08-30T01:53:33.819Z,52.96
2022-08-30T01:58:37.978Z,52.92
2022-08-30T02:03:43.410Z,54.31
2022-08-30T02:08:46.821Z,55.37
2022-08-30T02:13:50.841Z,55.24
2022-08-30T02:18:56.283Z,57.32
2022-08-30T02:23:59.082Z,58.29
2022-08-30T02:29:05.451Z,57.91
2022-08-30T02:34:08.381Z,59.96
2022-08-30T02:39:13.557Z,60.61
2022-08-30T02:44:16.641Z,61.19
2022-08-30T02:49:34.959Z,68.83
2022-08-30T02:54:37.953Z,61.56
2022-08-30T02:59:44.400Z,53.02
2022-08-30T03:04:48.151Z,53.73
2022-08-30T03:09:51.218Z,54.91
2022-08-30T03:14:54.553Z,56.28
2022-08-30T03:20:02.391Z,57.74
2022-08-30T03:25:08.590Z,58.44
2022-08-30T03:30:13.216Z,59.61
2022-08-30T03:35:17.456Z,60.58
2022-08-30T03:40:22.021Z,68.24
2022-08-30T03:45:26.827Z,60.97
2022-08-30T03:50:31.080Z,53.37
2022-08-30T03:55:34.258Z,53.77
2022-08-30T04:00:37.860Z,55.05
2022-08-30T04:05:40.961Z,56.38
2022-08-30T04:10:44.291Z,57.82
2022-08-30T04:15:48.062Z,59.21
2022-08-30T04:20:51.970Z,59.87
2022-08-30T04:25:55.856Z,60.95
2022-08-30T04:30:59.228Z,67.91
2022-08-30T04:36:07.754Z,59.38
2022-08-30T04:41:17.009Z,52.69
2022-08-30T04:46:20.212Z,54.29
2022-08-30T04:51:23.089Z,54.85
2022-08-30T04:56:26.294Z,56.32
2022-08-30T05:01:32.538Z,57.00
2022-08-30T05:06:48.867Z,57.46
2022-08-30T05:11:51.822Z,58.15
2022-08-30T05:16:54.987Z,59.03
2022-08-30T05:21:57.834Z,59.99
2022-08-30T05:27:00.887Z,60.84
2022-08-30T05:32:04.674Z,61.11
2022-08-30T05:37:07.531Z,68.47
2022-08-30T05:42:10.374Z,60.44
2022-08-30T05:47:13.727Z,52.79
2022-08-30T05:52:18.296Z,53.21
2022-08-30T05:57:21.847Z,54.43
2022-08-30T06:02:24.809Z,55.82
2022-08-30T06:07:28.643Z,56.93
2022-08-30T06:12:31.693Z,58.28
2022-08-30T06:17:34.870Z,59.55
2022-08-30T06:22:39.088Z,59.72
2022-08-30T06:27:42.674Z,59.99
2022-08-30T06:32:45.492Z,60.60
2022-08-30T06:37:48.321Z,61.03
2022-08-30T06:42:51.767Z,67.56
2022-08-30T06:47:54.790Z,57.45
2022-08-30T06:53:04.622Z,56.22
2022-08-30T06:58:07.569Z,56.54
2022-08-30T07:03:10.724Z,56.98
2022-08-30T07:08:13.880Z,57.65
2022-08-30T07:13:17.614Z,58.72
2022-08-30T07:18:39.793Z,59.68
2022-08-30T07:23:44.381Z,59.47
2022-08-30T07:28:47.928Z,59.20
2022-08-30T07:33:55.416Z,59.39
2022-08-30T07:38:58.476Z,59.36
2022-08-30T07:44:02.196Z,59.71
2022-08-30T07:49:11.277Z,60.02
2022-08-30T07:54:14.833Z,60.50
2022-08-30T07:59:17.966Z,61.14
2022-08-30T08:04:21.038Z,61.76
2022-08-30T08:09:23.903Z,61.58
2022-08-30T08:14:28.513Z,60.57
2022-08-30T08:19:31.545Z,61.06
2022-08-30T08:24:34.519Z,60.53
2022-08-30T08:29:37.519Z,59.93
2022-08-30T08:34:41.625Z,58.94
2022-08-30T08:39:44.675Z,58.83
2022-08-30T08:44:51.109Z,58.27
2022-08-30T08:50:03.191Z,58.85
2022-08-30T08:55:13.959Z,59.46
2022-08-30T09:00:17.100Z,58.56
2022-08-30T09:05:26.035Z,58.03
2022-08-30T09:10:49.215Z,58.55
2022-08-30T09:15:55.416Z,57.58
2022-08-30T09:21:05.720Z,57.39
2022-08-30T09:26:09.619Z,57.42
2022-08-30T09:31:23.762Z,58.36
2022-08-30T09:36:32.342Z,58.41
2022-08-30T09:41:41.519Z,58.80
2022-08-30T09:46:51.325Z,59.45
2022-08-30T09:52:32.551Z,57.96
2022-08-30T09:57:49.177Z,57.73
2022-08-30T10:03:13.180Z,57.42
2022-08-30T10:08:27.219Z,56.40
2022-08-30T10:13:49.067Z,56.33
2022-08-30T10:19:16.886Z,55.48
2022-08-30T10:24:32.826Z,56.13
2022-08-30T10:29:43.454Z,56.51
2022-08-30T10:34:56.434Z,55.20
2022-08-30T10:40:26.065Z,53.46
2022-08-30T10:45:33.196Z,53.49
2022-08-30T10:50:42.754Z,54.86
2022-08-30T10:55:52.362Z,55.71
2022-08-30T11:01:16.905Z,54.24
2022-08-30T11:06:36.849Z,52.33
2022-08-30T11:11:58.443Z,51.63
2022-08-30T11:17:02.319Z,54.48
2022-08-30T11:22:24.559Z,55.09
2022-08-30T11:27:51.528Z,55.72
2022-08-30T11:33:26.501Z,55.48
2022-08-30T11:38:30.024Z,54.88
2022-08-30T11:43:36.700Z,55.26
2022-08-30T11:48:54.167Z,55.32
2022-08-30T11:54:23.473Z,55.96
2022-08-30T11:59:46.466Z,55.42
2022-08-30T12:04:50.666Z,54.47
2022-08-30T12:09:53.998Z,53.98
2022-08-30T12:14:57.946Z,53.42
2022-08-30T12:20:01.335Z,52.61
2022-08-30T12:25:21.374Z,52.03
2022-08-30T12:30:28.135Z,51.44
2022-08-30T12:35:31.795Z,50.01
2022-08-30T12:40:35.321Z,48.88
2022-08-30T12:45:44.291Z,48.12
2022-08-30T12:50:52.376Z,47.51
2022-08-30T12:56:02.198Z,45.46
2022-08-30T13:01:18.567Z,42.65
2022-08-30T13:06:54.069Z,42.32
2022-08-30T13:11:59.752Z,43.79
2022-08-30T13:17:18.735Z,43.33
2022-08-30T13:22:28.529Z,43.59
2022-08-30T13:27:32.506Z,44.06
2022-08-30T13:32:40.427Z,44.76
2022-08-30T13:37:50.045Z,45.19
2022-08-30T13:42:55.426Z,46.03
2022-08-30T13:48:00.326Z,46.27
2022-08-30T13:53:04.220Z,46.32
2022-08-30T13:58:07.233Z,46.21
2022-08-30T14:03:14.027Z,46.55
2022-08-30T14:19:13.101Z,46.21
2022-08-30T14:24:16.071Z,46.75
2022-08-30T14:29:26.351Z,46.71
2022-08-30T14:34:31.772Z,47.47
2022-08-30T14:39:35.846Z,47.44
2022-08-30T14:44:55.136Z,47.21
2022-08-30T14:50:01.014Z,47.55
2022-08-30T14:55:08.873Z,47.83
2022-08-30T15:00:13.787Z,48.57
2022-08-30T15:05:17.691Z,48.48
2022-08-30T15:10:21.737Z,48.77
2022-08-30T15:15:26.170Z,48.76
2022-08-30T15:20:30.670Z,48.78
2022-08-30T15:25:33.629Z,49.12
2022-08-30T15:30:36.947Z,49.30
2022-08-30T15:35:40.299Z,49.60
2022-08-30T15:40:44.756Z,50.18
2022-08-30T15:45:47.954Z,50.75
2022-08-30T15:50:58.230Z,51.14
2022-08-30T15:56:01.242Z,51.22
2022-08-30T16:01:05.815Z,51.41
2022-08-30T16:06:19.660Z,51.56
2022-08-30T16:11:25.269Z,51.42
2022-08-30T16:16:29.015Z,51.49
2022-08-30T16:21:34.191Z,51.50
2022-08-30T16:26:37.938Z,51.72
2022-08-30T16:31:44.397Z,51.33
2022-08-30T16:36:47.679Z,51.75
2022-08-30T16:41:50.780Z,51.91
2022-08-30T16:46:54.065Z,52.26
2022-08-30T16:51:57.193Z,52.32
2022-08-30T16:57:00.451Z,52.50
2022-08-30T17:02:03.760Z,52.77
2022-08-30T17:07:07.455Z,52.85
2022-08-30T17:12:17.178Z,53.04
2022-08-30T17:17:22.002Z,52.47
2022-08-30T17:22:25.146Z,52.59
2022-08-30T17:27:29.273Z,52.56
2022-08-30T17:32:32.326Z,52.55
2022-08-30T17:37:35.535Z,52.56
2022-08-30T17:42:38.565Z,52.73
2022-08-30T17:47:42.785Z,53.15
2022-08-30T17:52:46.063Z,53.29
2022-08-30T17:57:50.912Z,53.44
2022-08-30T18:02:54.966Z,53.38
2022-08-30T18:07:58.420Z,53.61
2022-08-30T18:13:03.825Z,53.89
2022-08-30T18:18:11.547Z,54.25
2022-08-30T18:23:16.906Z,54.55
2022-08-30T18:28:20.014Z,54.97
2022-08-30T18:33:25.276Z,55.04
2022-08-30T18:38:28.591Z,55.19
2022-08-30T18:43:31.441Z,55.47
2022-08-30T18:48:35.147Z,55.51
2022-08-30T18:53:38.742Z,55.39
2022-08-30T18:58:45.099Z,55.68
2022-08-30T19:03:48.064Z,55.71
2022-08-30T19:08:51.920Z,55.85
2022-08-30T19:13:55.067Z,55.93
2022-08-30T19:18:58.499Z,56.14
2022-08-30T19:24:01.749Z,56.11
2022-08-30T19:29:05.920Z,56.18
2022-08-30T19:34:09.907Z,56.15
2022-08-30T19:39:13.018Z,56.13
2022-08-30T19:44:16.168Z,55.98
2022-08-30T19:49:19.093Z,56.05
2022-08-30T19:54:22.024Z,56.22
2022-08-30T19:59:25.023Z,56.43
2022-08-30T20:04:28.136Z,56.45
2022-08-30T20:09:31.061Z,56.91
2022-08-30T20:14:34.247Z,57.03
2022-08-30T20:19:37.373Z,57.13
2022-08-30T20:24:44.007Z,57.55
2022-08-30T20:29:49.241Z,57.93
2022-08-30T20:34:53.958Z,58.21
2022-08-30T20:39:57.405Z,58.28
2022-08-30T20:45:00.455Z,58.34
2022-08-30T20:50:09.141Z,58.76
2022-08-30T20:55:18.188Z,58.58
2022-08-30T21:00:21.511Z,59.17
2022-08-30T21:05:25.411Z,59.48
2022-08-30T21:10:28.389Z,59.42
2022-08-30T21:15:37.719Z,59.72
2022-08-30T21:20:41.730Z,59.90
2022-08-30T21:25:44.877Z,59.89
2022-08-30T21:30:47.963Z,60.02
2022-08-30T21:36:10.093Z,59.96
2022-08-30T21:41:13.101Z,60.30
2022-08-30T21:46:16.885Z,60.05
2022-08-30T21:51:20.355Z,60.00
2022-08-30T21:56:23.608Z,60.08
2022-08-30T22:01:29.515Z,60.52
2022-08-30T22:06:34.659Z,60.75
2022-08-30T22:11:37.839Z,61.12
2022-08-30T22:16:42.197Z,61.48
2022-08-30T22:21:48.079Z,61.81
2022-08-30T22:26:51.719Z,68.64
2022-08-30T22:31:55.228Z,61.41
2022-08-30T22:36:58.862Z,53.35
2022-08-30T22:42:02.397Z,53.91
2022-08-30T22:47:06.101Z,55.20
2022-08-30T22:52:09.322Z,56.26
2022-08-30T22:57:15.780Z,57.28
2022-08-30T23:02:19.030Z,58.04
2022-08-30T23:07:22.625Z,58.87
2022-08-30T23:12:26.654Z,59.64
2022-08-30T23:17:29.823Z,60.49
2022-08-30T23:22:41.530Z,61.01
2022-08-30T23:28:04.942Z,61.49
2022-08-30T23:33:26.693Z,69.60
2022-08-30T23:38:48.482Z,60.05
2022-08-30T23:44:10.773Z,53.59
2022-08-30T23:49:32.402Z,54.32
2022-08-30T23:54:55.745Z,55.59
